Time;durP1;ratioP1;P1;durP2;ratioP2;P2;SDS_P1;SDS_P2;PMS_P1;PMS_P2;Temp;Humidity;BMP_temperature;BMP_pressure;BME280_temperature;BME280_humidity;BME280_pressure;Samples;Min_cycle;Max_cycle;Signal;HPM_P1;HPM_P2
2021/10/28 00:14:08;;;;;;;40.35;25.55;;;;;;;;;;5007343;28;20201;-65
2021/10/28 00:16:36;;;;;;;39.47;26.25;;;;;;;;;;5029695;28;20201;-66
2021/10/28 00:19:04;;;;;;;39.38;25.02;;;;;;;;;;5018655;28;20263;-66
2021/10/28 00:21:32;;;;;;;40.05;24.88;;;;;;;;;;5030691;28;20271;-63
2021/10/28 00:24:02;;;;;;;36.95;24.50;;;;;;;;;;5030473;28;20234;-64
2021/10/28 00:26:30;;;;;;;36.38;24.30;;;;;;;;;;5018373;28;20208;-62
2021/10/28 00:29:00;;;;;;;39.70;25.23;;;;;;;;;;5010963;28;20267;-66
2021/10/28 00:31:27;;;;;;;41.15;25.38;;;;;;;;;;5012376;28;20202;-66
2021/10/28 00:33:55;;;;;;;42.45;24.85;;;;;;;;;;5023614;28;20201;-65
2021/10/28 00:36:21;;;;;;;42.58;24.95;;;;;;;;;;5024675;28;20277;-64
2021/10/28 00:38:48;;;;;;;39.65;26.25;;;;;;;;;;5027326;28;20271;-64
2021/10/28 00:41:16;;;;;;;39.63;25.35;;;;;;;;;;5008662;28;20205;-66
2021/10/28 00:43:45;;;;;;;41.00;25.58;;;;;;;;;;5007579;28;20232;-65
2021/10/28 00:46:15;;;;;;;42.85;24.95;;;;;;;;;;5030306;28;20205;-64
2021/10/28 00:48:42;;;;;;;40.40;26.92;;;;;;;;;;5012199;28;20194;-65
2021/10/28 00:51:09;;;;;;;39.67;25.88;;;;;;;;;;5009874;28;20210;-64
2021/10/28 00:53:37;;;;;;;41.70;25.77;;;;;;;;;;5009595;28;20205;-66
2021/10/28 00:56:05;;;;;;;42.47;27.02;;;;;;;;;;5007830;28;20869;-64
2021/10/28 00:58:33;;;;;;;43.60;25.88;;;;;;;;;;5018544;28;20205;-65
2021/10/28 01:01:00;;;;;;;37.28;23.63;;;;;;;;;;5001049;28;20201;-66
2021/10/28 01:03:28;;;;;;;38.78;25.08;;;;;;;;;;5019061;28;20237;-65
2021/10/28 01:05:55;;;;;;;39.15;23.95;;;;;;;;;;5020198;28;20299;-65
2021/10/28 01:08:22;;;;;;;41.60;25.90;;;;;;;;;;5028959;28;20233;-65
2021/10/28 01:10:50;;;;;;;40.40;26.20;;;;;;;;;;5013053;28;20193;-64
2021/10/28 01:13:18;;;;;;;35.72;24.45;;;;;;;;;;5014859;28;20197;-65
2021/10/28 01:15:45;;;;;;;38.38;24.40;;;;;;;;;;5007351;28;20286;-66
2021/10/28 01:18:14;;;;;;;39.60;26.42;;;;;;;;;;5017118;28;20222;-66
2021/10/28 01:20:42;;;;;;;40.00;25.45;;;;;;;;;;5016977;28;20201;-65
2021/10/28 01:23:33;;;;;;;37.97;24.77;;;;;;;;;;5029609;28;20235;-65
2021/10/28 01:26:02;;;;;;;38.80;24.25;;;;;;;;;;5026429;28;20232;-64
2021/10/28 01:28:30;;;;;;;38.60;24.70;;;;;;;;;;5019417;28;20212;-66
2021/10/28 01:30:58;;;;;;;35.40;24.38;;;;;;;;;;5029503;28;20227;-66
2021/10/28 01:33:27;;;;;;;39.63;24.02;;;;;;;;;;5028880;28;20212;-66
2021/10/28 01:35:54;;;;;;;35.72;23.10;;;;;;;;;;5026410;28;20741;-65
2021/10/28 01:38:22;;;;;;;38.03;25.67;;;;;;;;;;5029250;28;20263;-64
2021/10/28 01:40:56;;;;;;;35.33;24.15;;;;;;;;;;5027456;28;20291;-67
2021/10/28 01:43:24;;;;;;;39.65;24.10;;;;;;;;;;5026088;28;20215;-66
2021/10/28 01:45:51;;;;;;;36.63;23.33;;;;;;;;;;5030968;28;20188;-66
2021/10/28 01:48:18;;;;;;;35.33;23.00;;;;;;;;;;5022563;28;20278;-65
2021/10/28 01:50:45;;;;;;;35.35;22.33;;;;;;;;;;5031262;28;20193;-68
2021/10/28 01:53:12;;;;;;;36.58;23.17;;;;;;;;;;5017102;28;20269;-66
2021/10/28 01:55:39;;;;;;;36.90;22.63;;;;;;;;;;5023630;28;20299;-66
2021/10/28 01:58:07;;;;;;;36.00;22.60;;;;;;;;;;5002637;28;20763;-66
2021/10/28 02:00:35;;;;;;;34.05;22.52;;;;;;;;;;5010537;28;20239;-69
2021/10/28 02:03:02;;;;;;;36.58;23.10;;;;;;;;;;5020913;28;20213;-65
2021/10/28 02:05:31;;;;;;;34.58;22.13;;;;;;;;;;5025669;28;20209;-65
2021/10/28 02:07:57;;;;;;;33.67;22.40;;;;;;;;;;5018024;28;20623;-64
2021/10/28 02:10:24;;;;;;;37.58;22.40;;;;;;;;;;5028947;28;20193;-65
2021/10/28 02:12:51;;;;;;;35.67;23.05;;;;;;;;;;5005030;28;20226;-65
2021/10/28 02:15:19;;;;;;;35.65;22.75;;;;;;;;;;5013106;28;20199;-67
2021/10/28 02:17:46;;;;;;;36.00;23.40;;;;;;;;;;5019467;28;20233;-66
2021/10/28 02:20:14;;;;;;;33.90;23.08;;;;;;;;;;5013602;28;20202;-64
2021/10/28 02:22:43;;;;;;;36.25;22.67;;;;;;;;;;5016265;28;20224;-63
2021/10/28 02:25:11;;;;;;;34.33;23.17;;;;;;;;;;4999673;28;20202;-65
2021/10/28 02:27:38;;;;;;;38.92;23.85;;;;;;;;;;5008904;28;20197;-65
2021/10/28 02:30:06;;;;;;;36.38;22.23;;;;;;;;;;5002725;28;20205;-66
2021/10/28 02:32:34;;;;;;;35.28;23.17;;;;;;;;;;5018798;28;20201;-64
2021/10/28 02:35:01;;;;;;;33.10;22.33;;;;;;;;;;5019371;28;20659;-66
2021/10/28 02:37:28;;;;;;;34.30;21.55;;;;;;;;;;5005269;28;20204;-64
2021/10/28 02:39:55;;;;;;;35.70;21.58;;;;;;;;;;5017802;28;20190;-66
2021/10/28 02:42:22;;;;;;;31.38;20.83;;;;;;;;;;5013068;28;20679;-65
2021/10/28 02:44:49;;;;;;;36.78;21.95;;;;;;;;;;5021053;28;20200;-65
2021/10/28 02:47:16;;;;;;;36.08;21.90;;;;;;;;;;5021190;28;20202;-66
2021/10/28 02:49:43;;;;;;;44.10;23.23;;;;;;;;;;5022055;28;20208;-66
2021/10/28 02:52:10;;;;;;;33.40;22.35;;;;;;;;;;5011301;28;20216;-64
2021/10/28 02:54:38;;;;;;;36.15;24.25;;;;;;;;;;5013018;28;20308;-65
2021/10/28 02:57:06;;;;;;;37.35;23.73;;;;;;;;;;5006603;28;20218;-67
2021/10/28 02:59:33;;;;;;;38.17;24.35;;;;;;;;;;4997319;28;20197;-64
2021/10/28 03:02:00;;;;;;;34.08;24.05;;;;;;;;;;5001727;28;20209;-64
2021/10/28 03:04:27;;;;;;;34.72;23.70;;;;;;;;;;5027088;28;20257;-65
2021/10/28 03:06:56;;;;;;;33.97;22.52;;;;;;;;;;5030819;28;20212;-63
2021/10/28 03:09:24;;;;;;;33.13;22.33;;;;;;;;;;5012748;28;20230;-65
2021/10/28 03:11:54;;;;;;;38.13;24.13;;;;;;;;;;5027149;28;20193;-66
2021/10/28 03:14:27;;;;;;;45.22;24.40;;;;;;;;;;5016969;28;20193;-66
2021/10/28 03:17:00;;;;;;;45.58;27.42;;;;;;;;;;5024613;28;20205;-67
2021/10/28 03:27:32;;;;;;;53.47;29.63;;;;;;;;;;5014490;28;20219;-65
2021/10/28 03:29:59;;;;;;;42.67;26.42;;;;;;;;;;5019369;28;20204;-66
2021/10/28 03:32:27;;;;;;;40.63;25.30;;;;;;;;;;5004094;28;20201;-65
2021/10/28 03:34:54;;;;;;;40.30;25.10;;;;;;;;;;5022330;28;20556;-65
2021/10/28 03:37:30;;;;;;;41.28;25.90;;;;;;;;;;5021688;28;20280;-64
2021/10/28 03:40:20;;;;;;;40.65;25.73;;;;;;;;;;5020328;28;20786;-66
2021/10/28 03:49:11;;;;;;;42.28;25.45;;;;;;;;;;5016592;28;20217;-64
2021/10/28 04:31:24;;;;;;;56.00;32.58;;;;;;;;;;5023798;28;20217;-66
2021/10/28 04:33:51;;;;;;;55.95;32.38;;;;;;;;;;5021053;28;20193;-68
2021/10/28 04:36:18;;;;;;;56.05;32.58;;;;;;;;;;5029216;28;20718;-68
2021/10/28 04:38:45;;;;;;;56.25;33.63;;;;;;;;;;5023446;28;20208;-65
2021/10/28 04:41:11;;;;;;;57.50;32.63;;;;;;;;;;5023682;28;20193;-68
2021/10/28 04:43:38;;;;;;;56.53;34.60;;;;;;;;;;5018771;28;20228;-67
2021/10/28 04:46:05;;;;;;;54.10;33.17;;;;;;;;;;5029355;28;20267;-67
2021/10/28 04:48:32;;;;;;;65.38;36.03;;;;;;;;;;5012101;28;20229;-66
2021/10/28 04:50:59;;;;;;;63.40;36.33;;;;;;;;;;5009520;28;20630;-67
2021/10/28 04:53:28;;;;;;;62.38;36.55;;;;;;;;;;5024430;28;20197;-68
2021/10/28 04:55:55;;;;;;;115.35;62.85;;;;;;;;;;5029701;28;20190;-67
2021/10/28 04:58:22;;;;;;;132.45;71.82;;;;;;;;;;5014997;28;20206;-65
2021/10/28 05:00:49;;;;;;;123.15;69.53;;;;;;;;;;5023260;28;20205;-66
2021/10/28 05:03:17;;;;;;;142.10;82.55;;;;;;;;;;5008109;28;20308;-68
2021/10/28 05:05:44;;;;;;;141.07;72.90;;;;;;;;;;5014921;28;20197;-70
2021/10/28 05:08:11;;;;;;;146.50;80.05;;;;;;;;;;5028962;28;20224;-70
2021/10/28 05:10:42;;;;;;;122.45;64.15;;;;;;;;;;5015832;28;20578;-68
2021/10/28 05:13:12;;;;;;;113.60;63.65;;;;;;;;;;5019055;28;20198;-68
2021/10/28 05:15:43;;;;;;;103.47;60.00;;;;;;;;;;5016827;28;20292;-68
2021/10/28 05:18:10;;;;;;;105.13;62.50;;;;;;;;;;5028900;28;20194;-69
2021/10/28 05:20:37;;;;;;;109.47;62.33;;;;;;;;;;5010624;28;20682;-67
2021/10/28 05:23:04;;;;;;;117.63;62.33;;;;;;;;;;5009658;28;20683;-69
2021/10/28 05:25:31;;;;;;;109.32;59.33;;;;;;;;;;5023931;28;20643;-67
2021/10/28 05:27:59;;;;;;;101.55;55.28;;;;;;;;;;5020512;28;20704;-69
2021/10/28 05:30:26;;;;;;;92.28;53.78;;;;;;;;;;5015481;28;20190;-66
2021/10/28 05:32:53;;;;;;;85.07;51.08;;;;;;;;;;5029196;28;20201;-66
2021/10/28 05:35:20;;;;;;;86.93;49.53;;;;;;;;;;5027595;28;20574;-68
2021/10/28 05:37:47;;;;;;;93.00;49.80;;;;;;;;;;5009014;28;20660;-65
2021/10/28 05:40:13;;;;;;;87.93;48.58;;;;;;;;;;5009810;28;20236;-67
2021/10/28 05:42:43;;;;;;;79.25;48.85;;;;;;;;;;5009922;28;20197;-66
2021/10/28 05:45:10;;;;;;;86.45;49.50;;;;;;;;;;5022507;28;20279;-66
2021/10/28 05:47:37;;;;;;;89.90;50.00;;;;;;;;;;5019517;28;20190;-67
2021/10/28 05:50:21;;;;;;;82.53;49.08;;;;;;;;;;5014317;28;20247;-66
2021/10/28 05:52:50;;;;;;;88.97;51.78;;;;;;;;;;5018595;28;20205;-67
2021/10/28 05:55:18;;;;;;;96.70;53.40;;;;;;;;;;5026097;28;20594;-67
2021/10/28 05:57:45;;;;;;;93.03;53.05;;;;;;;;;;5028923;28;20216;-66
2021/10/28 06:00:12;;;;;;;88.07;53.72;;;;;;;;;;5014613;28;20249;-65
2021/10/28 06:02:39;;;;;;;92.20;55.05;;;;;;;;;;5016969;28;20266;-69
2021/10/28 06:05:06;;;;;;;99.38;54.45;;;;;;;;;;5015829;28;20233;-65
2021/10/28 06:07:33;;;;;;;97.40;57.97;;;;;;;;;;5009153;28;20193;-68
2021/10/28 06:10:01;;;;;;;110.63;67.55;;;;;;;;;;5009499;28;20221;-66
2021/10/28 06:12:32;;;;;;;132.60;77.72;;;;;;;;;;5026854;28;20560;-65
2021/10/28 06:14:59;;;;;;;133.50;79.65;;;;;;;;;;5030645;28;20237;-65
2021/10/28 06:17:49;;;;;;;135.95;79.00;;;;;;;;;;5031715;28;20197;-67
2021/10/28 06:20:16;;;;;;;135.75;81.97;;;;;;;;;;5018112;28;20236;-67
2021/10/28 06:22:43;;;;;;;151.35;84.63;;;;;;;;;;5021995;28;20190;-66
2021/10/28 06:25:10;;;;;;;132.07;77.43;;;;;;;;;;5013126;28;20707;-66
2021/10/28 06:27:37;;;;;;;133.45;76.22;;;;;;;;;;5031379;28;20201;-68
2021/10/28 06:30:06;;;;;;;118.03;71.22;;;;;;;;;;5032458;28;20390;-65
2021/10/28 06:32:33;;;;;;;118.57;71.18;;;;;;;;;;5032121;28;20530;-67
2021/10/28 06:35:03;;;;;;;112.75;70.93;;;;;;;;;;5032933;28;20536;-67
2021/10/28 06:37:29;;;;;;;117.82;74.28;;;;;;;;;;5012912;28;20205;-66
2021/10/28 06:39:56;;;;;;;129.20;78.40;;;;;;;;;;5012754;28;20202;-66
2021/10/28 06:42:23;;;;;;;130.85;82.38;;;;;;;;;;5029498;28;20192;-67
2021/10/28 06:44:50;;;;;;;125.35;77.90;;;;;;;;;;5032388;28;20607;-65
2021/10/28 06:47:17;;;;;;;125.97;76.65;;;;;;;;;;5025661;28;20193;-65
2021/10/28 06:49:44;;;;;;;125.50;73.32;;;;;;;;;;5013009;28;20210;-67
2021/10/28 06:52:13;;;;;;;114.28;66.13;;;;;;;;;;5026382;28;20196;-67
2021/10/28 06:54:41;;;;;;;101.68;60.83;;;;;;;;;;5024805;28;20263;-66
2021/10/28 07:02:33;;;;;;;93.77;49.70;;;;;;;;;;5026880;28;20242;-69
2021/10/28 07:05:01;;;;;;;89.20;48.37;;;;;;;;;;5012914;28;20558;-70
2021/10/28 07:07:32;;;;;;;86.13;48.77;;;;;;;;;;5019596;28;20432;-66
2021/10/28 07:15:10;;;;;;;89.88;47.28;;;;;;;;;;5032424;28;20280;-65
2021/10/28 07:20:18;;;;;;;78.33;45.57;;;;;;;;;;5031083;28;20201;-68
2021/10/28 07:30:43;;;;;;;70.75;43.83;;;;;;;;;;5030036;28;20459;-67
2021/10/28 07:33:21;;;;;;;72.57;43.10;;;;;;;;;;5031314;28;20207;-64
2021/10/28 07:56:20;;;;;;;42.87;29.27;;;;;;;;;;5011413;28;20953;-67
2021/10/28 08:06:05;;;;;;;43.57;30.97;;;;;;;;;;5015474;28;20526;-68
2021/10/28 08:19:48;;;;;;;44.23;30.37;;;;;;;;;;5031106;28;20493;-67
2021/10/28 08:22:32;;;;;;;49.07;31.90;;;;;;;;;;5025078;28;20973;-67
2021/10/28 08:30:17;;;;;;;46.47;30.97;;;;;;;;;;5016590;28;20476;-70
2021/10/28 08:32:44;;;;;;;46.03;28.53;;;;;;;;;;5030457;28;20469;-68
2021/10/28 08:35:32;;;;;;;41.77;27.63;;;;;;;;;;5030324;28;20447;-67
2021/10/28 08:38:00;;;;;;;43.70;28.97;;;;;;;;;;5030450;28;20447;-70
2021/10/28 08:40:27;;;;;;;46.73;29.20;;;;;;;;;;5030587;28;20471;-68
2021/10/28 08:43:02;;;;;;;39.83;27.73;;;;;;;;;;5030080;28;20925;-68
2021/10/28 08:45:34;;;;;;;43.60;26.80;;;;;;;;;;5015940;28;20492;-69
2021/10/28 08:48:03;;;;;;;42.67;27.77;;;;;;;;;;5017373;28;20892;-68
2021/10/28 08:50:41;;;;;;;40.30;27.43;;;;;;;;;;5015862;28;20446;-68
2021/10/28 08:55:37;;;;;;;46.43;25.90;;;;;;;;;;5010443;28;20429;-68
2021/10/28 09:25:43;;;;;;;39.33;26.07;;;;;;;;;;5029722;28;20471;-69
2021/10/28 09:28:36;;;;;;;34.50;25.90;;;;;;;;;;5029322;28;20471;-68
2021/10/28 09:31:24;;;;;;;27.93;23.73;;;;;;;;;;5018096;28;20442;-67
2021/10/28 09:45:34;;;;;;;26.10;18.63;;;;;;;;;;5028711;28;20499;-67
2021/10/28 09:48:22;;;;;;;26.90;19.17;;;;;;;;;;5016213;28;20445;-67
2021/10/28 09:50:49;;;;;;;23.03;16.53;;;;;;;;;;5017403;28;20536;-69
2021/10/28 09:53:28;;;;;;;24.00;16.67;;;;;;;;;;5014235;28;20429;-68
2021/10/28 09:59:00;;;;;;;22.97;14.90;;;;;;;;;;5042781;28;21095;-68
2021/10/28 10:01:31;;;;;;;18.73;14.80;;;;;;;;;;5029539;28;20924;-67
2021/10/28 10:04:02;;;;;;;24.00;18.03;;;;;;;;;;5032876;28;20528;-68
2021/10/28 10:06:29;;;;;;;19.87;15.80;;;;;;;;;;5022106;28;20512;-66
2021/10/28 10:08:56;;;;;;;20.03;13.53;;;;;;;;;;5030004;28;20471;-68
2021/10/28 10:11:27;;;;;;;23.50;13.87;;;;;;;;;;5032473;28;20442;-68
2021/10/28 10:13:55;;;;;;;19.67;13.27;;;;;;;;;;5030789;28;20435;-67
2021/10/28 10:16:21;;;;;;;15.20;11.73;;;;;;;;;;5026921;28;20512;-66
2021/10/28 10:18:50;;;;;;;16.80;10.67;;;;;;;;;;5037482;28;20446;-66
2021/10/28 10:24:09;;;;;;;16.13;11.80;;;;;;;;;;5032703;28;20517;-68
2021/10/28 10:27:19;;;;;;;20.10;12.63;;;;;;;;;;5032085;28;20565;-69
2021/10/28 11:22:58;;;;;;;13.57;8.00;;;;;;;;;;5019026;28;20491;-67
2021/10/28 11:32:27;;;;;;;7.43;4.97;;;;;;;;;;5015902;28;20439;-67
2021/10/28 12:46:47;;;;;;;6.70;3.43;;;;;;;;;;5016868;28;20252;-69
2021/10/28 13:56:01;;;;;;;5.80;3.63;;;;;;;;;;5010469;28;20546;-75
2021/10/28 14:59:42;;;;;;;7.37;3.50;;;;;;;;;;5027550;28;20898;-67
2021/10/28 15:29:33;;;;;;;9.87;3.90;;;;;;;;;;5021809;28;20459;-66
2021/10/28 15:40:43;;;;;;;6.93;4.33;;;;;;;;;;5035985;28;20451;-66
2021/10/28 16:24:21;;;;;;;18.60;12.17;;;;;;;;;;5027866;28;20475;-66
2021/10/28 16:26:47;;;;;;;37.90;21.53;;;;;;;;;;5027068;28;20486;-66
2021/10/28 16:29:14;;;;;;;15.57;8.90;;;;;;;;;;5029926;28;20827;-69
2021/10/28 16:31:42;;;;;;;16.10;9.57;;;;;;;;;;5027798;28;20440;-65
2021/10/28 16:34:09;;;;;;;14.87;8.60;;;;;;;;;;5025972;28;20440;-65
2021/10/28 16:36:36;;;;;;;19.27;9.37;;;;;;;;;;5025493;28;20431;-65
2021/10/28 16:39:07;;;;;;;15.57;8.07;;;;;;;;;;5027190;28;20452;-66
2021/10/28 16:41:36;;;;;;;15.20;7.67;;;;;;;;;;5021798;28;20435;-69
2021/10/28 16:44:03;;;;;;;15.53;8.40;;;;;;;;;;5010550;28;20447;-65
2021/10/28 16:46:30;;;;;;;12.50;7.70;;;;;;;;;;5013994;28;20555;-66
2021/10/28 16:48:57;;;;;;;15.00;7.50;;;;;;;;;;5016075;28;20451;-65
2021/10/28 16:51:25;;;;;;;12.43;7.17;;;;;;;;;;5015949;28;20451;-67
2021/10/28 16:53:53;;;;;;;11.77;7.53;;;;;;;;;;5016357;28;21222;-66
2021/10/28 16:56:22;;;;;;;12.10;6.97;;;;;;;;;;5025177;28;20444;-65
2021/10/28 16:58:49;;;;;;;11.47;7.27;;;;;;;;;;5024135;28;20440;-64
2021/10/28 17:01:16;;;;;;;17.37;7.60;;;;;;;;;;5026260;28;20450;-67
2021/10/28 17:03:44;;;;;;;12.50;7.40;;;;;;;;;;5029353;28;20439;-65
2021/10/28 17:06:15;;;;;;;16.57;8.50;;;;;;;;;;5026232;28;20525;-68
2021/10/28 17:08:42;;;;;;;12.77;8.27;;;;;;;;;;5021549;28;20475;-66
2021/10/28 17:11:10;;;;;;;14.83;9.07;;;;;;;;;;5022915;28;20449;-66
2021/10/28 17:13:38;;;;;;;23.13;10.40;;;;;;;;;;5024103;28;20531;-67
2021/10/28 17:16:08;;;;;;;16.87;12.30;;;;;;;;;;5024102;28;20447;-68
2021/10/28 17:18:35;;;;;;;16.93;9.20;;;;;;;;;;5019952;28;20503;-68
2021/10/28 17:21:04;;;;;;;20.20;10.33;;;;;;;;;;5015710;28;20443;-68
2021/10/28 17:23:34;;;;;;;13.37;8.83;;;;;;;;;;5012750;28;20821;-65
2021/10/28 17:26:03;;;;;;;24.57;9.87;;;;;;;;;;5013197;28;20535;-66
2021/10/28 17:28:35;;;;;;;14.30;9.23;;;;;;;;;;5026090;28;20969;-65
2021/10/28 17:31:02;;;;;;;16.10;7.80;;;;;;;;;;5014457;28;20486;-66
2021/10/28 17:33:29;;;;;;;12.63;7.73;;;;;;;;;;5019858;28;20606;-67
2021/10/28 17:35:56;;;;;;;10.33;7.47;;;;;;;;;;5017072;28;20444;-63
2021/10/28 17:38:27;;;;;;;12.20;7.07;;;;;;;;;;5019500;28;20444;-67
2021/10/28 17:40:54;;;;;;;11.70;6.90;;;;;;;;;;5020169;28;20701;-69
2021/10/28 17:43:45;;;;;;;11.03;7.50;;;;;;;;;;5026917;28;20895;-66
2021/10/28 17:46:13;;;;;;;10.63;7.20;;;;;;;;;;5022244;28;20963;-65
2021/10/28 17:48:40;;;;;;;16.17;7.50;;;;;;;;;;5018330;28;20454;-67
2021/10/28 17:51:07;;;;;;;14.23;8.00;;;;;;;;;;5022698;28;20540;-65
2021/10/28 17:53:35;;;;;;;11.53;7.70;;;;;;;;;;5023273;28;20444;-65
2021/10/28 17:56:01;;;;;;;18.83;8.17;;;;;;;;;;5020837;28;20444;-67
2021/10/28 17:58:29;;;;;;;10.80;7.80;;;;;;;;;;5022862;28;20503;-66
2021/10/28 18:00:56;;;;;;;13.87;8.33;;;;;;;;;;5020222;28;20506;-66
2021/10/28 18:03:23;;;;;;;13.37;8.17;;;;;;;;;;5024656;28;20444;-69
2021/10/28 18:05:51;;;;;;;17.00;8.40;;;;;;;;;;5024520;28;20436;-67
2021/10/28 18:08:18;;;;;;;18.10;9.40;;;;;;;;;;5021786;28;20569;-67
2021/10/28 18:10:45;;;;;;;15.63;8.27;;;;;;;;;;5022558;28;20536;-65
2021/10/28 18:13:14;;;;;;;14.50;8.70;;;;;;;;;;5024251;28;20468;-64
2021/10/28 18:15:41;;;;;;;20.53;9.53;;;;;;;;;;5025705;28;20453;-68
2021/10/28 18:18:08;;;;;;;14.73;9.17;;;;;;;;;;5023540;28;20478;-68
2021/10/28 18:20:54;;;;;;;14.50;9.53;;;;;;;;;;5023982;28;20440;-67
2021/10/28 18:23:30;;;;;;;17.97;9.27;;;;;;;;;;5025367;28;20458;-67
2021/10/28 18:25:58;;;;;;;19.57;12.57;;;;;;;;;;5025187;28;20567;-67
2021/10/28 18:28:25;;;;;;;14.77;9.73;;;;;;;;;;5023490;28;21081;-70
2021/10/28 18:30:52;;;;;;;16.87;9.97;;;;;;;;;;5024762;28;20957;-69
2021/10/28 18:33:20;;;;;;;23.47;10.30;;;;;;;;;;5025224;28;20439;-64
2021/10/28 18:35:48;;;;;;;16.30;9.83;;;;;;;;;;5030993;28;20455;-67
2021/10/28 18:38:15;;;;;;;15.87;9.60;;;;;;;;;;5025746;28;20450;-70
2021/10/28 18:40:42;;;;;;;15.10;9.00;;;;;;;;;;5025296;28;20859;-65
2021/10/28 18:43:09;;;;;;;19.57;9.80;;;;;;;;;;5027139;28;20482;-68
2021/10/28 18:45:36;;;;;;;11.43;7.43;;;;;;;;;;5019186;28;20973;-64
2021/10/28 18:48:04;;;;;;;13.73;8.93;;;;;;;;;;5017683;28;21348;-66
2021/10/28 18:50:31;;;;;;;15.67;8.97;;;;;;;;;;5013499;28;20441;-69
2021/10/28 18:52:59;;;;;;;16.77;9.00;;;;;;;;;;5027462;28;21011;-68
2021/10/28 18:55:26;;;;;;;33.13;23.53;;;;;;;;;;5021609;28;20437;-67
2021/10/28 18:57:53;;;;;;;31.27;19.40;;;;;;;;;;5028571;28;20448;-66
2021/10/28 19:00:20;;;;;;;66.33;35.13;;;;;;;;;;5027551;28;20820;-67
2021/10/28 19:02:47;;;;;;;24.03;13.40;;;;;;;;;;5015084;28;20542;-67
2021/10/28 19:05:14;;;;;;;43.80;30.67;;;;;;;;;;5021301;28;20479;-65
2021/10/28 19:07:45;;;;;;;12.53;8.87;;;;;;;;;;5022458;28;20996;-67
2021/10/28 19:10:12;;;;;;;10.63;7.67;;;;;;;;;;5029880;28;20448;-65
2021/10/28 19:12:39;;;;;;;11.17;7.70;;;;;;;;;;5028260;28;20436;-68
2021/10/28 19:15:07;;;;;;;14.67;8.37;;;;;;;;;;5030072;28;20502;-65
2021/10/28 19:17:34;;;;;;;13.77;7.87;;;;;;;;;;5027547;28;20467;-66
2021/10/28 19:20:01;;;;;;;15.93;8.23;;;;;;;;;;5015945;28;20441;-66
2021/10/28 19:22:32;;;;;;;15.00;8.60;;;;;;;;;;5028307;28;20950;-68
2021/10/28 19:24:59;;;;;;;15.20;9.00;;;;;;;;;;5023865;28;20890;-67
2021/10/28 19:27:31;;;;;;;15.73;8.37;;;;;;;;;;5023495;28;20533;-67
2021/10/28 19:30:05;;;;;;;15.13;8.50;;;;;;;;;;5006632;28;20442;-66
2021/10/28 19:32:36;;;;;;;13.90;8.67;;;;;;;;;;5013521;28;21446;-64
2021/10/28 19:35:04;;;;;;;12.83;8.20;;;;;;;;;;5010729;28;20440;-66
2021/10/28 19:47:30;;;;;;;14.20;8.70;;;;;;;;;;5008320;28;20475;-65
2021/10/28 19:49:57;;;;;;;14.37;8.67;;;;;;;;;;5021499;28;20445;-67
2021/10/28 19:52:24;;;;;;;14.43;8.20;;;;;;;;;;5028607;28;21033;-66
2021/10/28 19:54:57;;;;;;;13.33;8.07;;;;;;;;;;5020516;28;20445;-67
2021/10/28 19:57:26;;;;;;;13.03;7.97;;;;;;;;;;5022434;28;20440;-66
2021/10/28 20:00:06;;;;;;;44.23;29.80;;;;;;;;;;5009130;28;20822;-66
2021/10/28 20:21:02;;;;;;;15.27;9.30;;;;;;;;;;5024717;28;20470;-66
2021/10/28 20:23:29;;;;;;;15.03;9.13;;;;;;;;;;5028043;28;20462;-69
2021/10/28 20:25:55;;;;;;;13.90;9.40;;;;;;;;;;5031158;28;20510;-64
2021/10/28 20:28:22;;;;;;;16.33;10.40;;;;;;;;;;5010839;28;20608;-67
2021/10/28 20:30:55;;;;;;;13.37;9.73;;;;;;;;;;5002136;28;20447;-65
2021/10/28 20:33:23;;;;;;;13.77;9.60;;;;;;;;;;5025917;28;21356;-66
2021/10/28 20:36:04;;;;;;;13.57;10.00;;;;;;;;;;5024238;28;20456;-63
2021/10/28 20:38:32;;;;;;;17.43;10.83;;;;;;;;;;5009676;28;20448;-65
2021/10/28 20:40:59;;;;;;;19.17;10.00;;;;;;;;;;5016743;28;21196;-67
2021/10/28 20:43:26;;;;;;;15.80;9.93;;;;;;;;;;5019775;28;20948;-69
2021/10/28 20:45:53;;;;;;;17.03;11.13;;;;;;;;;;5007839;28;20766;-67
2021/10/28 20:48:20;;;;;;;18.43;11.67;;;;;;;;;;5011776;28;20486;-68
2021/10/28 20:50:47;;;;;;;19.97;11.40;;;;;;;;;;5002726;28;20444;-65
2021/10/28 20:53:14;;;;;;;18.57;10.63;;;;;;;;;;5023430;28;20440;-66
2021/10/28 20:55:41;;;;;;;18.13;10.67;;;;;;;;;;5030283;28;20447;-66
2021/10/28 20:58:07;;;;;;;18.27;11.13;;;;;;;;;;5013407;28;20440;-64
2021/10/28 21:00:34;;;;;;;16.90;10.37;;;;;;;;;;5001920;28;20456;-63
2021/10/28 21:03:02;;;;;;;15.33;10.63;;;;;;;;;;5010668;28;20436;-65
2021/10/28 21:05:29;;;;;;;19.70;10.90;;;;;;;;;;5026390;28;20989;-63
2021/10/28 21:07:56;;;;;;;15.60;11.00;;;;;;;;;;5016186;28;20484;-66
2021/10/28 21:10:25;;;;;;;15.83;10.70;;;;;;;;;;4999753;28;20490;-65
2021/10/28 21:12:53;;;;;;;22.87;13.80;;;;;;;;;;5016197;28;20447;-68
2021/10/28 21:15:20;;;;;;;18.33;11.33;;;;;;;;;;5016542;28;20443;-66
2021/10/28 21:17:47;;;;;;;24.07;13.80;;;;;;;;;;5014992;28;20566;-64
2021/10/28 21:20:14;;;;;;;18.97;10.73;;;;;;;;;;5016166;28;20436;-67
2021/10/28 21:22:41;;;;;;;14.37;10.47;;;;;;;;;;5029368;28;20634;-67
2021/10/28 21:25:08;;;;;;;13.67;9.77;;;;;;;;;;5029213;28;20969;-65
2021/10/28 21:27:36;;;;;;;19.30;9.50;;;;;;;;;;5020591;28;20524;-66
2021/10/28 21:30:04;;;;;;;15.47;10.67;;;;;;;;;;5015903;28;21358;-66
2021/10/28 21:32:31;;;;;;;15.63;9.87;;;;;;;;;;5019548;28;20434;-65
2021/10/28 21:34:58;;;;;;;16.87;10.67;;;;;;;;;;5021551;28;20443;-67
2021/10/28 21:37:24;;;;;;;14.93;11.07;;;;;;;;;;5016767;28;20443;-65
2021/10/28 21:39:54;;;;;;;16.13;10.30;;;;;;;;;;5030700;28;20830;-65
2021/10/28 21:42:24;;;;;;;14.73;9.40;;;;;;;;;;5015112;28;20448;-69
2021/10/28 21:44:56;;;;;;;16.47;10.53;;;;;;;;;;5018519;28;20975;-66
2021/10/28 21:47:25;;;;;;;15.27;9.83;;;;;;;;;;5014842;28;20439;-63
2021/10/28 21:49:53;;;;;;;13.87;10.07;;;;;;;;;;5020737;28;20555;-66
2021/10/28 21:55:05;;;;;;;18.70;11.53;;;;;;;;;;5009435;28;20448;-63
2021/10/28 21:57:57;;;;;;;16.53;10.67;;;;;;;;;;5010225;28;20884;-63
2021/10/28 22:25:35;;;;;;;34.03;19.43;;;;;;;;;;5019245;28;20451;-63
2021/10/28 22:28:03;;;;;;;33.97;20.90;;;;;;;;;;5024399;28;20456;-64
2021/10/28 22:30:30;;;;;;;25.73;12.97;;;;;;;;;;5017796;28;20436;-64
2021/10/28 22:32:58;;;;;;;22.93;13.33;;;;;;;;;;5019135;28;20448;-63
2021/10/28 22:35:51;;;;;;;19.80;12.63;;;;;;;;;;5019198;28;20439;-66
2021/10/28 22:38:12;;;;;;;19.33;12.60;;;;;;;;;;5031501;28;20514;-63
2021/10/28 22:40:47;;;;;;;17.93;13.03;;;;;;;;;;5028460;28;20443;-66
2021/10/28 22:43:14;;;;;;;20.43;13.27;;;;;;;;;;5009925;28;20560;-65
2021/10/28 22:45:42;;;;;;;19.47;12.13;;;;;;;;;;5006049;28;20447;-63
2021/10/28 22:48:10;;;;;;;19.00;12.27;;;;;;;;;;5012964;28;20476;-65
2021/10/28 22:50:38;;;;;;;18.30;11.83;;;;;;;;;;5022461;28;20955;-67
2021/10/28 22:53:06;;;;;;;16.80;12.10;;;;;;;;;;5012583;28;20445;-65
2021/10/28 22:55:38;;;;;;;18.53;10.07;;;;;;;;;;5012192;28;21037;-64
2021/10/28 22:58:16;;;;;;;16.77;10.93;;;;;;;;;;5012340;28;20452;-64
2021/10/28 23:00:48;;;;;;;13.10;9.97;;;;;;;;;;5007144;28;20507;-66
2021/10/28 23:03:49;;;;;;;13.23;9.70;;;;;;;;;;5005677;28;20926;-63
2021/10/28 23:22:26;;;;;;;16.60;10.60;;;;;;;;;;5014875;28;20823;-64
2021/10/28 23:24:52;;;;;;;14.80;10.70;;;;;;;;;;5032224;28;20444;-65
2021/10/28 23:27:19;;;;;;;14.47;11.30;;;;;;;;;;5033178;28;20474;-68
2021/10/28 23:29:48;;;;;;;18.23;10.70;;;;;;;;;;5020234;28;21122;-65
2021/10/28 23:32:15;;;;;;;16.23;11.67;;;;;;;;;;5007987;28;20539;-66
2021/10/28 23:34:41;;;;;;;17.30;11.50;;;;;;;;;;5021785;28;20989;-64
2021/10/28 23:37:08;;;;;;;20.00;12.40;;;;;;;;;;5021754;28;20896;-66
2021/10/28 23:39:35;;;;;;;16.67;11.07;;;;;;;;;;5028579;28;20440;-66
2021/10/28 23:42:02;;;;;;;18.13;11.43;;;;;;;;;;5015947;28;20448;-64
2021/10/28 23:44:29;;;;;;;17.67;11.97;;;;;;;;;;5011134;28;20451;-63
2021/10/28 23:46:56;;;;;;;18.87;11.80;;;;;;;;;;5002601;28;20449;-66
2021/10/28 23:49:23;;;;;;;17.27;12.37;;;;;;;;;;5016856;28;20483;-64
2021/10/28 23:51:50;;;;;;;21.30;13.27;;;;;;;;;;5002717;28;20444;-66
2021/10/28 23:54:18;;;;;;;21.97;13.43;;;;;;;;;;5005890;28;20550;-67
2021/10/28 23:56:44;;;;;;;20.87;12.53;;;;;;;;;;5006769;28;20617;-64
2021/10/28 23:59:11;;;;;;;18.23;12.47;;;;;;;;;;5015040;28;20449;-65
